createdAt,value
2023-05-07T00:02:08.403Z,100.00
2023-05-07T00:04:38.482Z,100.00
2023-05-07T00:07:04.940Z,100.00
2023-05-07T00:09:31.252Z,100.00
2023-05-07T00:12:03.701Z,100.00
2023-05-07T00:14:30.085Z,100.00
2023-05-07T00:16:56.649Z,100.00
2023-05-07T00:19:38.406Z,100.00
2023-05-07T00:22:04.719Z,100.00
2023-05-07T00:24:31.041Z,100.00
2023-05-07T00:26:59.031Z,100.00
2023-05-07T00:29:25.510Z,100.00
2023-05-07T00:31:52.143Z,100.00
2023-05-07T00:34:18.544Z,100.00
2023-05-07T00:36:44.898Z,100.00
2023-05-07T00:39:11.686Z,100.00
2023-05-07T00:41:38.123Z,100.00
2023-05-07T00:44:11.574Z,100.00
2023-05-07T00:46:38.535Z,100.00
2023-05-07T00:49:06.334Z,100.00
2023-05-07T00:51:33.161Z,100.00
2023-05-07T00:54:00.940Z,100.00
2023-05-07T00:56:27.636Z,100.00
2023-05-07T00:58:54.125Z,100.00
2023-05-07T01:01:20.939Z,100.00
2023-05-07T01:03:47.464Z,100.00
2023-05-07T01:06:17.602Z,100.00
2023-05-07T01:08:44.893Z,100.00
2023-05-07T01:11:12.275Z,100.00
2023-05-07T01:13:39.229Z,100.00
2023-05-07T01:16:06.225Z,100.00
2023-05-07T01:18:32.610Z,100.00
2023-05-07T01:20:59.558Z,100.00
2023-05-07T01:23:26.708Z,100.00
2023-05-07T01:25:54.050Z,100.00
2023-05-07T01:28:20.556Z,100.00
2023-05-07T01:30:49.103Z,100.00
2023-05-07T01:33:24.818Z,100.00
2023-05-07T01:35:52.619Z,100.00
2023-05-07T01:38:19.509Z,100.00
2023-05-07T01:40:46.505Z,100.00
2023-05-07T01:43:13.076Z,100.00
2023-05-07T01:45:39.646Z,100.00
2023-05-07T01:48:07.009Z,100.00
2023-05-07T01:50:33.412Z,100.00
2023-05-07T01:52:59.796Z,100.00
2023-05-07T01:55:37.794Z,100.00
2023-05-07T01:58:04.923Z,100.00
2023-05-07T02:00:31.622Z,100.00
2023-05-07T02:02:58.845Z,100.00
2023-05-07T02:05:25.492Z,100.00
2023-05-07T02:07:51.799Z,100.00
2023-05-07T02:10:18.107Z,100.00
2023-05-07T02:12:44.399Z,100.00
2023-05-07T02:15:11.558Z,100.00
2023-05-07T02:17:41.096Z,100.00
2023-05-07T02:20:14.177Z,100.00
2023-05-07T02:22:40.602Z,100.00
2023-05-07T02:25:07.158Z,100.00
2023-05-07T02:27:33.464Z,100.00
2023-05-07T02:29:59.787Z,100.00
2023-05-07T02:32:33.433Z,100.00
2023-05-07T02:35:00.047Z,100.00
2023-05-07T02:37:26.344Z,100.00
2023-05-07T02:39:52.645Z,100.00
2023-05-07T02:42:18.965Z,100.00
2023-05-07T02:44:46.312Z,100.00
2023-05-07T02:47:14.040Z,100.00
2023-05-07T02:49:40.430Z,100.00
2023-05-07T02:52:10.800Z,100.00
2023-05-07T02:54:37.137Z,100.00
2023-05-07T02:57:04.178Z,100.00
2023-05-07T02:59:30.502Z,100.00
2023-05-07T03:01:56.810Z,100.00
2023-05-07T03:04:23.209Z,100.00
2023-05-07T03:06:49.570Z,100.00
2023-05-07T03:09:15.930Z,100.00
2023-05-07T03:11:42.279Z,100.00
2023-05-07T03:14:08.742Z,100.00
2023-05-07T03:16:35.091Z,100.00
2023-05-07T03:19:01.516Z,100.00
2023-05-07T03:21:28.037Z,100.00
2023-05-07T03:23:54.349Z,100.00
2023-05-07T03:26:21.458Z,100.00
2023-05-07T03:28:47.775Z,100.00
2023-05-07T03:31:14.381Z,100.00
2023-05-07T03:33:50.874Z,100.00
2023-05-07T03:36:17.188Z,100.00
2023-05-07T03:38:43.472Z,100.00
2023-05-07T03:41:09.801Z,100.00
2023-05-07T03:43:36.204Z,100.00
2023-05-07T03:46:03.020Z,100.00
2023-05-07T03:48:29.361Z,100.00
2023-05-07T03:50:56.848Z,100.00
2023-05-07T03:53:23.152Z,100.00
2023-05-07T03:55:57.710Z,100.00
2023-05-07T03:58:24.026Z,100.00
2023-05-07T04:00:50.875Z,100.00
2023-05-07T04:03:17.302Z,100.00
2023-05-07T04:05:43.716Z,100.00
2023-05-07T04:08:10.064Z,100.00
2023-05-07T04:10:36.391Z,100.00
2023-05-07T04:13:02.836Z,100.00
2023-05-07T04:15:29.177Z,100.00
2023-05-07T04:17:55.546Z,100.00
2023-05-07T04:20:21.878Z,100.00
2023-05-07T04:22:48.186Z,100.00
2023-05-07T04:25:18.598Z,100.00
2023-05-07T04:27:44.916Z,100.00
2023-05-07T04:30:11.809Z,100.00
2023-05-07T04:32:40.041Z,100.00
2023-05-07T04:35:06.916Z,100.00
2023-05-07T04:37:33.800Z,100.00
2023-05-07T04:40:00.197Z,100.00
2023-05-07T04:42:26.549Z,100.00
2023-05-07T04:44:54.187Z,100.00
2023-05-07T04:47:20.551Z,100.00
2023-05-07T04:49:47.566Z,100.00
2023-05-07T04:52:13.946Z,100.00
2023-05-07T04:54:40.258Z,100.00
2023-05-07T04:57:06.921Z,100.00
2023-05-07T04:59:33.561Z,100.00
2023-05-07T05:01:59.997Z,100.00
2023-05-07T05:04:26.731Z,100.00
2023-05-07T05:06:53.042Z,100.00
2023-05-07T05:09:19.413Z,100.00
2023-05-07T05:11:45.987Z,100.00
2023-05-07T05:14:12.319Z,100.00
2023-05-07T05:16:38.773Z,100.00
2023-05-07T05:19:05.357Z,100.00
2023-05-07T05:21:32.161Z,100.00
2023-05-07T05:23:58.988Z,100.00
2023-05-07T05:26:25.286Z,100.00
2023-05-07T05:28:54.816Z,100.00
2023-05-07T05:31:21.183Z,100.00
2023-05-07T05:33:47.575Z,100.00
2023-05-07T05:36:15.017Z,100.00
2023-05-07T05:38:54.558Z,100.00
2023-05-07T05:41:21.601Z,100.00
2023-05-07T05:43:47.896Z,100.00
2023-05-07T05:46:16.414Z,100.00
2023-05-07T05:48:42.776Z,100.00
2023-05-07T05:51:09.102Z,100.00
2023-05-07T05:53:38.575Z,100.00
2023-05-07T05:56:05.093Z,100.00
2023-05-07T05:58:31.505Z,100.00
2023-05-07T06:00:59.195Z,100.00
2023-05-07T06:03:25.608Z,100.00
2023-05-07T06:05:51.979Z,100.00
2023-05-07T06:08:19.539Z,100.00
2023-05-07T06:10:45.928Z,100.00
2023-05-07T06:13:12.329Z,100.00
2023-05-07T06:15:40.770Z,100.00
2023-05-07T06:18:07.184Z,100.00
2023-05-07T06:20:33.589Z,100.00
2023-05-07T06:22:59.895Z,100.00
2023-05-07T06:25:26.215Z,100.00
2023-05-07T06:27:52.523Z,100.00
2023-05-07T06:30:18.876Z,100.00
2023-05-07T06:32:47.290Z,100.00
2023-05-07T06:35:13.663Z,100.00
2023-05-07T06:37:40.597Z,100.00
2023-05-07T06:40:08.250Z,100.00
2023-05-07T06:42:35.049Z,100.00
2023-05-07T06:45:06.753Z,100.00
2023-05-07T06:47:44.083Z,100.00
2023-05-07T06:50:10.973Z,100.00
2023-05-07T06:52:46.833Z,100.00
2023-05-07T06:55:16.262Z,100.00
2023-05-07T06:57:42.579Z,100.00
2023-05-07T07:00:11.326Z,100.00
2023-05-07T07:02:38.000Z,100.00
2023-05-07T07:05:05.609Z,100.00
2023-05-07T07:07:31.996Z,100.00
2023-05-07T07:09:58.315Z,100.00
2023-05-07T07:12:26.948Z,100.00
2023-05-07T07:14:55.022Z,100.00
2023-05-07T07:17:22.741Z,100.00
2023-05-07T07:19:54.105Z,100.00
2023-05-07T07:22:20.515Z,100.00
2023-05-07T07:24:46.948Z,100.00
2023-05-07T07:27:17.602Z,100.00
2023-05-07T07:29:45.012Z,100.00
2023-05-07T07:32:14.694Z,100.00
2023-05-07T07:34:41.093Z,100.00
2023-05-07T07:37:17.889Z,100.00
2023-05-07T07:39:48.440Z,100.00
2023-05-07T07:42:14.776Z,100.00
2023-05-07T07:44:42.167Z,100.00
2023-05-07T07:47:08.563Z,100.00
2023-05-07T07:49:34.972Z,100.00
2023-05-07T07:52:07.458Z,100.00
2023-05-07T07:54:33.799Z,100.00
2023-05-07T07:57:00.627Z,100.00
2023-05-07T07:59:27.164Z,100.00
2023-05-07T08:02:04.502Z,100.00
2023-05-07T08:04:31.853Z,100.00
2023-05-07T08:06:58.585Z,100.00
2023-05-07T08:09:25.022Z,100.00
2023-05-07T08:11:51.351Z,100.00
2023-05-07T08:14:17.757Z,100.00
2023-05-07T08:16:44.081Z,100.00
2023-05-07T08:19:11.054Z,100.00
2023-05-07T08:21:39.765Z,100.00
2023-05-07T08:24:14.936Z,100.00
2023-05-07T08:26:41.376Z,100.00
2023-05-07T08:29:07.774Z,100.00
2023-05-07T08:31:34.235Z,100.00
2023-05-07T08:34:00.796Z,100.00
2023-05-07T08:36:27.142Z,100.00
2023-05-07T08:38:54.509Z,100.00
2023-05-07T08:41:21.821Z,100.00
2023-05-07T08:43:48.883Z,100.00
2023-05-07T08:46:21.304Z,100.00
2023-05-07T08:48:51.375Z,100.00
2023-05-07T08:51:19.013Z,100.00
2023-05-07T08:53:45.813Z,100.00
2023-05-07T08:56:12.585Z,100.00
2023-05-07T08:58:38.883Z,100.00
2023-05-07T09:01:09.900Z,100.00
2023-05-07T09:03:37.515Z,100.00
2023-05-07T09:06:03.945Z,100.00
2023-05-07T09:08:30.345Z,100.00
2023-05-07T09:10:58.070Z,100.00
2023-05-07T09:13:33.658Z,100.00
2023-05-07T09:16:10.979Z,100.00
2023-05-07T09:51:03.370Z,66.55
2023-05-07T09:53:30.575Z,64.77
2023-05-07T09:56:01.153Z,66.39
2023-05-07T09:58:29.426Z,65.58
2023-05-07T10:00:56.769Z,61.96
2023-05-07T10:03:23.704Z,62.26
2023-05-07T10:05:50.154Z,60.89
2023-05-07T10:08:20.879Z,61.13
2023-05-07T10:10:47.212Z,61.99
2023-05-07T10:13:18.261Z,60.43
2023-05-07T10:15:45.465Z,61.56
2023-05-07T10:18:13.275Z,65.76
2023-05-07T10:20:39.974Z,66.62
2023-05-07T10:23:06.947Z,66.52
2023-05-07T10:25:33.770Z,64.29
2023-05-07T10:28:07.784Z,63.99
2023-05-07T10:30:38.370Z,63.61
2023-05-07T10:33:08.058Z,64.69
2023-05-07T10:35:45.071Z,63.34
2023-05-07T10:38:11.929Z,62.91
2023-05-07T10:40:38.304Z,64.24
2023-05-07T10:43:10.815Z,61.11
2023-05-07T10:45:37.391Z,59.74
2023-05-07T10:48:27.215Z,61.30
2023-05-07T10:51:14.852Z,61.83
2023-05-07T10:53:43.244Z,62.87
2023-05-07T10:56:18.724Z,63.45
2023-05-07T10:58:45.150Z,61.33
2023-05-07T11:01:14.137Z,61.21
2023-05-07T11:03:59.490Z,61.30
2023-05-07T11:06:26.587Z,63.68
2023-05-07T11:08:52.877Z,66.03
2023-05-07T11:11:20.911Z,65.32
2023-05-07T11:13:48.670Z,66.77
2023-05-07T11:16:18.209Z,68.16
2023-05-07T11:18:51.689Z,68.30
2023-05-07T11:21:38.087Z,66.09
2023-05-07T11:24:05.337Z,64.94
2023-05-07T11:26:32.712Z,63.81
2023-05-07T11:29:01.179Z,62.92
2023-05-07T11:31:29.626Z,60.60
2023-05-07T11:33:58.194Z,60.35
2023-05-07T11:36:24.818Z,59.87
2023-05-07T11:38:51.179Z,59.60
2023-05-07T11:41:18.391Z,58.50
2023-05-07T11:43:57.635Z,58.41
2023-05-07T11:46:27.988Z,57.00
2023-05-07T11:48:54.695Z,59.02
2023-05-07T11:51:26.837Z,54.19
2023-05-07T11:53:53.359Z,56.10
2023-05-07T11:56:26.852Z,57.88
2023-05-07T11:58:53.267Z,54.91
2023-05-07T12:01:19.641Z,56.00
2023-05-07T12:03:48.090Z,55.41
2023-05-07T12:06:16.455Z,53.85
2023-05-07T12:08:48.621Z,54.35
2023-05-07T12:11:23.142Z,49.75
2023-05-07T12:13:58.978Z,50.06
2023-05-07T12:16:26.228Z,50.48
2023-05-07T12:18:56.067Z,50.02
2023-05-07T12:21:24.554Z,50.64
2023-05-07T12:23:51.362Z,49.13
2023-05-07T12:26:17.713Z,49.13
2023-05-07T12:28:44.083Z,49.16
2023-05-07T12:31:10.504Z,49.46
2023-05-07T12:33:37.187Z,47.48
2023-05-07T12:36:08.328Z,48.49
2023-05-07T12:38:38.889Z,50.63
2023-05-07T12:41:05.888Z,48.30
2023-05-07T12:43:32.329Z,49.45
2023-05-07T12:46:00.673Z,49.52
2023-05-07T12:48:28.117Z,48.33
2023-05-07T12:50:54.865Z,48.85
2023-05-07T12:53:22.269Z,49.02
2023-05-07T12:55:57.857Z,49.10
2023-05-07T12:58:28.784Z,48.63
2023-05-07T13:00:55.848Z,49.09
2023-05-07T13:03:24.117Z,48.16
2023-05-07T13:05:51.381Z,45.48
2023-05-07T13:08:44.402Z,46.65
2023-05-07T13:11:11.509Z,49.47
2023-05-07T13:13:41.432Z,48.25
2023-05-07T13:16:09.563Z,46.42
2023-05-07T13:18:36.412Z,47.50
2023-05-07T13:21:02.878Z,47.59
2023-05-07T13:23:29.634Z,47.03
2023-05-07T13:25:56.887Z,44.95
2023-05-07T13:28:24.096Z,44.81
2023-05-07T13:30:52.764Z,48.07
2023-05-07T13:33:21.188Z,43.93
2023-05-07T13:35:47.588Z,45.02
2023-05-07T13:38:14.035Z,50.66
2023-05-07T13:40:40.592Z,53.53
2023-05-07T13:43:07.261Z,52.68
2023-05-07T13:45:33.689Z,53.02
2023-05-07T13:48:00.300Z,53.90
2023-05-07T13:50:28.101Z,55.98
2023-05-07T13:52:54.570Z,55.40
2023-05-07T13:55:21.899Z,54.44
2023-05-07T13:57:48.476Z,55.14
2023-05-07T14:00:15.348Z,53.48
2023-05-07T14:02:42.137Z,56.12
2023-05-07T14:05:09.995Z,55.54
2023-05-07T14:07:36.922Z,55.17
2023-05-07T14:10:03.722Z,57.30
2023-05-07T14:12:30.127Z,55.73
2023-05-07T14:14:57.391Z,56.92
2023-05-07T14:17:26.366Z,55.64
2023-05-07T14:19:55.174Z,54.87
2023-05-07T14:22:22.875Z,56.41
2023-05-07T14:24:59.422Z,56.77
2023-05-07T14:27:32.589Z,57.05
2023-05-07T14:29:58.915Z,55.76
2023-05-07T14:32:25.303Z,56.00
2023-05-07T14:34:51.648Z,55.43
2023-05-07T14:37:19.062Z,56.08
2023-05-07T14:39:49.770Z,56.99
2023-05-07T14:42:16.891Z,56.84
2023-05-07T14:44:43.266Z,57.89
2023-05-07T14:47:09.855Z,59.17
2023-05-07T14:49:36.549Z,60.47
2023-05-07T14:52:04.026Z,61.75
2023-05-07T14:54:30.402Z,65.33
2023-05-07T14:56:56.887Z,71.88
2023-05-07T14:59:25.838Z,83.65
2023-05-07T15:01:52.939Z,88.51
2023-05-07T15:04:20.043Z,100.00
2023-05-07T15:06:47.429Z,100.00
2023-05-07T15:09:14.428Z,100.00
2023-05-07T15:11:41.008Z,100.00
2023-05-07T15:14:07.378Z,100.00
2023-05-07T15:16:34.965Z,100.00
2023-05-07T15:19:01.411Z,100.00
2023-05-07T15:21:27.958Z,100.00
2023-05-07T15:23:54.322Z,100.00
2023-05-07T15:26:21.424Z,100.00
2023-05-07T15:28:47.800Z,100.00
2023-05-07T15:31:14.306Z,100.00
2023-05-07T15:33:41.934Z,100.00
2023-05-07T15:36:08.300Z,100.00
2023-05-07T15:38:35.104Z,100.00
2023-05-07T15:41:01.438Z,100.00
2023-05-07T15:43:27.831Z,100.00
2023-05-07T15:45:54.470Z,100.00
2023-05-07T15:48:21.141Z,100.00
2023-05-07T15:50:47.547Z,100.00
2023-05-07T15:53:14.112Z,100.00
2023-05-07T15:55:41.409Z,100.00
2023-05-07T15:58:10.045Z,100.00
2023-05-07T16:00:36.573Z,100.00
2023-05-07T16:03:03.251Z,100.00
2023-05-07T16:05:29.750Z,100.00
2023-05-07T16:07:57.270Z,100.00
2023-05-07T16:10:23.590Z,100.00
2023-05-07T16:12:49.989Z,100.00
2023-05-07T16:15:16.362Z,100.00
2023-05-07T16:17:45.346Z,100.00
2023-05-07T16:20:13.180Z,100.00
2023-05-07T16:22:39.664Z,100.00
2023-05-07T16:25:06.380Z,100.00
2023-05-07T16:27:32.758Z,100.00
2023-05-07T16:29:59.161Z,100.00
2023-05-07T16:32:25.592Z,100.00
2023-05-07T16:34:51.988Z,100.00
2023-05-07T16:37:18.481Z,100.00
2023-05-07T16:39:47.006Z,100.00
2023-05-07T16:42:14.151Z,100.00
2023-05-07T16:44:40.686Z,100.00
2023-05-07T16:47:07.188Z,100.00
2023-05-07T16:49:33.527Z,100.00
2023-05-07T16:52:03.258Z,100.00
2023-05-07T16:54:36.710Z,100.00
2023-05-07T16:57:07.228Z,100.00
2023-05-07T16:59:33.675Z,100.00
2023-05-07T17:02:00.122Z,100.00
2023-05-07T17:04:26.955Z,100.00
2023-05-07T17:06:53.615Z,100.00
2023-05-07T17:09:20.051Z,100.00
2023-05-07T17:11:48.760Z,100.00
2023-05-07T17:14:17.712Z,100.00
2023-05-07T17:16:44.317Z,100.00
2023-05-07T17:22:07.341Z,100.00
2023-05-07T17:24:34.658Z,100.00
2023-05-07T17:27:00.986Z,100.00
2023-05-07T17:29:37.539Z,100.00
2023-05-07T17:32:05.056Z,100.00
2023-05-07T17:34:32.547Z,100.00
2023-05-07T17:36:59.077Z,100.00
2023-05-07T17:39:25.496Z,100.00
2023-05-07T17:41:51.809Z,100.00
2023-05-07T17:44:18.304Z,100.00
2023-05-07T17:46:47.733Z,100.00
2023-05-07T17:49:15.553Z,100.00
2023-05-07T17:51:53.465Z,100.00
2023-05-07T17:54:21.531Z,100.00
2023-05-07T17:56:47.864Z,100.00
2023-05-07T17:59:14.189Z,100.00
2023-05-07T18:01:42.159Z,100.00
2023-05-07T18:04:08.768Z,100.00
2023-05-07T18:06:35.588Z,100.00
2023-05-07T18:09:01.913Z,100.00
2023-05-07T18:11:28.762Z,100.00
2023-05-07T18:13:55.069Z,100.00
2023-05-07T18:16:21.516Z,100.00
2023-05-07T18:18:47.898Z,100.00
2023-05-07T18:21:20.183Z,100.00
2023-05-07T18:23:47.065Z,100.00
2023-05-07T18:26:14.028Z,100.00
2023-05-07T18:28:40.486Z,100.00
2023-05-07T18:31:07.287Z,100.00
2023-05-07T18:33:33.906Z,100.00
2023-05-07T18:36:00.415Z,100.00
2023-05-07T18:38:26.760Z,100.00
2023-05-07T18:40:53.304Z,100.00
2023-05-07T18:43:19.714Z,100.00
2023-05-07T18:45:49.505Z,100.00
2023-05-07T18:48:16.863Z,100.00
2023-05-07T18:50:44.013Z,100.00
2023-05-07T18:53:11.404Z,100.00
2023-05-07T18:55:37.784Z,100.00
2023-05-07T18:58:04.106Z,100.00
2023-05-07T19:00:30.491Z,100.00
2023-05-07T19:02:56.871Z,100.00
2023-05-07T19:05:23.278Z,100.00
2023-05-07T19:07:53.633Z,100.00
2023-05-07T19:10:20.109Z,100.00
2023-05-07T19:12:47.816Z,100.00
2023-05-07T19:15:14.256Z,100.00
2023-05-07T19:17:40.603Z,100.00
2023-05-07T19:22:38.639Z,100.00
2023-05-07T19:25:05.447Z,100.00
2023-05-07T19:27:31.908Z,100.00
2023-05-07T19:29:59.395Z,100.00
2023-05-07T19:32:26.190Z,100.00
2023-05-07T19:34:53.567Z,100.00
2023-05-07T19:37:22.883Z,100.00
2023-05-07T19:39:49.391Z,100.00
2023-05-07T19:42:15.922Z,100.00
2023-05-07T19:44:42.294Z,100.00
2023-05-07T19:47:09.399Z,100.00
2023-05-07T19:49:36.737Z,100.00
2023-05-07T19:52:03.834Z,100.00
2023-05-07T19:54:30.209Z,100.00
2023-05-07T19:56:56.777Z,100.00
2023-05-07T19:59:23.549Z,100.00
2023-05-07T20:01:49.899Z,100.00
2023-05-07T20:04:16.304Z,100.00
2023-05-07T20:06:42.681Z,100.00
2023-05-07T20:09:12.553Z,100.00
2023-05-07T20:11:39.653Z,100.00
2023-05-07T20:14:06.184Z,100.00
2023-05-07T20:16:33.204Z,100.00
2023-05-07T20:18:59.769Z,100.00
2023-05-07T20:21:26.785Z,100.00
2023-05-07T20:23:54.442Z,100.00
2023-05-07T20:26:21.300Z,100.00
2023-05-07T20:28:47.721Z,100.00
2023-05-07T20:31:14.243Z,100.00
2023-05-07T20:33:41.761Z,100.00
2023-05-07T20:36:08.413Z,100.00
2023-05-07T20:38:34.731Z,100.00
2023-05-07T20:41:16.296Z,100.00
2023-05-07T20:43:42.700Z,100.00
2023-05-07T20:46:09.170Z,100.00
2023-05-07T20:48:35.600Z,100.00
2023-05-07T20:51:02.143Z,100.00
2023-05-07T20:53:29.671Z,100.00
2023-05-07T20:55:56.318Z,100.00
2023-05-07T20:58:25.902Z,100.00
2023-05-07T21:00:52.763Z,100.00
2023-05-07T21:03:19.341Z,100.00
2023-05-07T21:05:52.306Z,100.00
2023-05-07T21:08:19.504Z,100.00
2023-05-07T21:10:46.604Z,100.00
2023-05-07T21:13:17.227Z,100.00
2023-05-07T21:15:43.615Z,100.00
2023-05-07T21:18:10.698Z,100.00
2023-05-07T21:20:37.209Z,100.00
2023-05-07T21:23:03.835Z,100.00
2023-05-07T21:25:32.150Z,100.00
2023-05-07T21:27:58.472Z,100.00
2023-05-07T21:30:43.764Z,100.00
2023-05-07T21:33:10.155Z,100.00
2023-05-07T21:35:36.749Z,100.00
2023-05-07T21:38:07.189Z,100.00
2023-05-07T21:40:40.018Z,100.00
2023-05-07T21:43:07.347Z,100.00
2023-05-07T21:45:33.654Z,100.00
2023-05-07T21:48:00.049Z,100.00
2023-05-07T21:50:26.777Z,100.00
2023-05-07T21:52:53.096Z,100.00
2023-05-07T21:55:19.476Z,100.00
2023-05-07T21:58:01.313Z,100.00
2023-05-07T22:00:31.716Z,100.00
2023-05-07T22:02:58.185Z,100.00
2023-05-07T22:05:24.512Z,100.00
2023-05-07T22:07:50.875Z,100.00
2023-05-07T22:10:21.759Z,100.00
2023-05-07T22:12:48.120Z,100.00
2023-05-07T22:15:14.436Z,100.00
2023-05-07T22:17:40.866Z,100.00
2023-05-07T22:20:07.989Z,100.00
2023-05-07T22:22:45.424Z,100.00
2023-05-07T22:25:11.829Z,100.00
2023-05-07T22:27:38.137Z,100.00
2023-05-07T22:30:04.655Z,100.00
2023-05-07T22:32:30.981Z,100.00
2023-05-07T22:34:57.326Z,100.00
2023-05-07T22:37:26.164Z,100.00
2023-05-07T22:39:53.096Z,100.00
2023-05-07T22:42:19.806Z,100.00
2023-05-07T22:44:47.110Z,100.00
2023-05-07T22:47:13.426Z,100.00
2023-05-07T22:49:39.727Z,100.00
2023-05-07T22:52:06.026Z,100.00
2023-05-07T22:54:32.374Z,100.00
2023-05-07T22:56:59.820Z,100.00
2023-05-07T22:59:26.153Z,100.00
2023-05-07T23:01:52.477Z,100.00
2023-05-07T23:04:18.777Z,100.00
2023-05-07T23:06:45.119Z,100.00
2023-05-07T23:09:12.759Z,100.00
2023-05-07T23:11:39.549Z,100.00
2023-05-07T23:14:05.969Z,100.00
2023-05-07T23:16:32.598Z,100.00
2023-05-07T23:18:58.979Z,100.00
2023-05-07T23:21:25.271Z,100.00
2023-05-07T23:23:51.573Z,100.00
2023-05-07T23:26:17.935Z,100.00
2023-05-07T23:28:44.260Z,100.00
2023-05-07T23:31:11.128Z,100.00
2023-05-07T23:33:38.744Z,100.00
2023-05-07T23:36:05.787Z,100.00
2023-05-07T23:38:32.626Z,100.00
2023-05-07T23:40:59.193Z,100.00
2023-05-07T23:43:25.691Z,100.00
2023-05-07T23:45:52.218Z,100.00
2023-05-07T23:48:19.034Z,100.00
2023-05-07T23:50:45.325Z,100.00
2023-05-07T23:53:11.633Z,100.00
2023-05-07T23:55:38.928Z,100.00
2023-05-07T23:58:05.248Z,100.00
